Pablo, Montana
Current Conditions -  °F | °C
As of 8:53 AM on Thursday 27 Nov 2014 (Local Time) from KMSO Reporting Station
Haze Haze  
Wind Chill: 31°   Ceiling: 7000
Heat Index: 31°   Visibility: 6mi
Dew Point: 31°   Wind: 3mph
Humidity: 100%   Direction: NA
Pressure: 29.98"   Gusts: NA
Location:  47.59°N, 114.12°W
Report Text: KMSO 271553Z VRB03KT 6SM BR FEW002 SCT050 OVC070 M01/M01 A2998 RMK AO2 SLP181 T10061006
Loading
Personal Weather Stations






























Interactive Weather Map New forecast layout! Learn more

10-Day Weather Forecast

Advertisements
Track Severe Weather on mobile